createdAt,value
2023-02-01T00:01:25.608Z,7.83
2023-02-01T00:03:53.843Z,7.00
2023-02-01T00:06:22.114Z,7.80
2023-02-01T00:08:50.392Z,7.27
2023-02-01T00:11:18.491Z,6.87
2023-02-01T00:13:48.028Z,6.83
2023-02-01T00:16:18.273Z,7.57
2023-02-01T00:18:47.305Z,6.63
2023-02-01T00:21:16.768Z,6.50
2023-02-01T00:23:45.145Z,6.90
2023-02-01T00:26:17.762Z,6.57
2023-02-01T00:28:47.383Z,6.67
2023-02-01T00:31:16.866Z,6.47
2023-02-01T00:33:45.774Z,6.60
2023-02-01T00:36:14.006Z,6.33
2023-02-01T00:38:42.263Z,6.80
2023-02-01T00:41:13.750Z,6.93
2023-02-01T00:43:42.298Z,6.80
2023-02-01T00:46:12.939Z,7.00
2023-02-01T00:48:42.322Z,6.40
2023-02-01T00:51:12.566Z,6.90
2023-02-01T00:53:42.219Z,5.60
2023-02-01T00:56:11.361Z,7.57
2023-02-01T00:58:40.027Z,6.83
2023-02-01T01:01:13.034Z,7.10
2023-02-01T01:03:44.680Z,7.57
2023-02-01T01:06:14.835Z,6.30
2023-02-01T01:08:44.061Z,7.93
2023-02-01T01:11:15.286Z,6.80
2023-02-01T01:13:44.561Z,7.27
2023-02-01T01:16:14.482Z,7.80
2023-02-01T01:18:43.220Z,7.17
2023-02-01T01:21:14.605Z,7.20
2023-02-01T01:23:43.231Z,6.87
2023-02-01T01:26:14.489Z,8.20
2023-02-01T01:28:42.900Z,7.70
2023-02-01T01:31:13.471Z,7.93
2023-02-01T01:33:41.999Z,6.13
2023-02-01T01:36:12.380Z,6.90
2023-02-01T01:38:41.440Z,7.80
2023-02-01T01:41:10.712Z,7.50
2023-02-01T01:43:51.985Z,7.03
2023-02-01T01:46:24.431Z,7.53
2023-02-01T01:48:56.061Z,7.60
2023-02-01T01:51:26.759Z,8.13
2023-02-01T01:54:02.911Z,8.10
2023-02-01T01:56:33.662Z,6.90
2023-02-01T01:59:02.570Z,8.37
2023-02-01T02:01:32.211Z,8.67
2023-02-01T02:04:01.515Z,7.80
2023-02-01T02:06:41.001Z,7.97
2023-02-01T02:09:09.398Z,7.77
2023-02-01T02:11:37.686Z,5.67
2023-02-01T02:14:07.177Z,7.80
2023-02-01T02:17:00.374Z,7.57
2023-02-01T02:20:10.697Z,7.33
2023-02-01T02:23:15.535Z,7.40
2023-02-01T02:26:15.300Z,7.33
2023-02-01T02:29:25.332Z,6.77
2023-02-01T02:32:20.252Z,6.77
2023-02-01T02:34:56.166Z,6.27
2023-02-01T02:37:35.516Z,6.77
2023-02-01T02:40:09.948Z,5.90
2023-02-01T02:43:16.660Z,6.00
2023-02-01T02:46:09.495Z,6.03
2023-02-01T02:48:45.013Z,6.27
2023-02-01T02:51:35.208Z,6.00
2023-02-01T02:54:26.862Z,6.10
2023-02-01T02:57:15.004Z,6.10
2023-02-01T03:00:03.388Z,6.30
2023-02-01T03:02:52.367Z,5.83
2023-02-01T03:05:21.808Z,5.50
2023-02-01T03:07:59.152Z,4.93
2023-02-01T03:10:37.103Z,5.40
2023-02-01T03:13:09.159Z,5.57
2023-02-01T03:15:41.494Z,5.27
2023-02-01T03:18:15.269Z,5.90
2023-02-01T03:20:48.308Z,5.70
2023-02-01T03:23:22.059Z,5.30
2023-02-01T03:25:52.571Z,5.90
2023-02-01T03:28:24.880Z,4.90
2023-02-01T03:30:53.318Z,5.00
2023-02-01T03:33:25.557Z,4.90
2023-02-01T03:36:03.031Z,4.90
2023-02-01T03:38:38.351Z,4.60
2023-02-01T03:41:16.331Z,4.97
2023-02-01T03:43:54.580Z,5.40
2023-02-01T03:46:28.754Z,5.27
2023-02-01T03:48:58.084Z,6.00
2023-02-01T03:51:27.416Z,5.87
2023-02-01T03:53:58.138Z,5.60
2023-02-01T03:56:29.260Z,5.70
2023-02-01T03:59:00.739Z,5.40
2023-02-01T04:01:34.536Z,5.73
2023-02-01T04:04:03.005Z,6.07
2023-02-01T04:06:31.642Z,5.90
2023-02-01T04:09:05.605Z,5.93
2023-02-01T04:11:33.889Z,6.07
2023-02-01T04:14:05.276Z,5.90
2023-02-01T04:16:33.878Z,5.80
2023-02-01T04:19:02.679Z,6.30
2023-02-01T04:21:31.389Z,6.47
2023-02-01T04:23:59.787Z,6.40
2023-02-01T04:26:29.422Z,6.33
2023-02-01T04:28:57.670Z,6.57
2023-02-01T04:31:28.149Z,6.27
2023-02-01T04:33:58.446Z,6.00
2023-02-01T04:36:26.829Z,6.00
2023-02-01T04:38:55.171Z,5.60
2023-02-01T04:41:23.785Z,6.17
2023-02-01T04:43:54.048Z,6.27
2023-02-01T04:46:22.563Z,5.57
2023-02-01T04:48:50.781Z,5.77
2023-02-01T04:51:19.065Z,5.57
2023-02-01T04:53:47.236Z,5.70
2023-02-01T04:56:15.420Z,5.70
2023-02-01T04:58:43.641Z,5.40
2023-02-01T05:01:13.226Z,4.73
2023-02-01T05:03:41.417Z,5.30
2023-02-01T05:06:09.844Z,5.27
2023-02-01T05:08:38.944Z,5.63
2023-02-01T05:11:07.395Z,5.30
2023-02-01T05:13:49.596Z,5.13
2023-02-01T05:16:19.158Z,5.30
2023-02-01T05:18:47.608Z,5.03
2023-02-01T05:21:15.984Z,5.37
2023-02-01T05:24:01.530Z,5.17
2023-02-01T05:26:30.088Z,5.60
2023-02-01T05:28:59.645Z,5.90
2023-02-01T05:31:29.246Z,5.47
2023-02-01T05:33:57.528Z,5.13
2023-02-01T05:36:26.055Z,5.40
2023-02-01T05:38:54.435Z,5.97
2023-02-01T05:41:22.891Z,5.73
2023-02-01T05:43:51.019Z,6.30
2023-02-01T05:46:19.231Z,6.07
2023-02-01T05:48:48.931Z,5.63
2023-02-01T05:51:17.137Z,6.00
2023-02-01T05:53:45.307Z,5.80
2023-02-01T05:56:13.447Z,5.93
2023-02-01T05:58:41.638Z,5.90
2023-02-01T06:01:09.811Z,5.87
2023-02-01T06:03:38.177Z,6.33
2023-02-01T06:06:08.396Z,6.03
2023-02-01T06:08:36.591Z,5.60
2023-02-01T06:11:06.625Z,6.30
2023-02-01T06:13:35.032Z,6.13
2023-02-01T06:16:04.390Z,6.20
2023-02-01T06:18:33.919Z,6.00
2023-02-01T06:21:02.895Z,6.53
2023-02-01T06:23:33.060Z,6.33
2023-02-01T06:26:02.438Z,6.23
2023-02-01T06:28:31.404Z,6.07
2023-02-01T06:30:59.973Z,6.20
2023-02-01T06:33:28.237Z,5.80
2023-02-01T06:36:00.378Z,6.00
2023-02-01T06:38:28.866Z,5.57
2023-02-01T06:40:59.904Z,5.93
2023-02-01T06:43:29.421Z,6.17
2023-02-01T06:46:02.274Z,5.87
2023-02-01T06:48:31.211Z,5.77
2023-02-01T06:50:59.585Z,5.57
2023-02-01T06:53:28.028Z,6.20
2023-02-01T06:55:59.057Z,5.00
2023-02-01T06:58:31.042Z,5.80
2023-02-01T07:00:59.410Z,5.73
2023-02-01T07:03:27.589Z,4.97
2023-02-01T07:05:59.495Z,5.60
2023-02-01T07:08:29.246Z,5.20
2023-02-01T07:10:59.340Z,5.27
2023-02-01T07:13:27.442Z,5.13
2023-02-01T07:15:55.636Z,5.63
2023-02-01T07:18:24.113Z,5.40
2023-02-01T07:20:53.341Z,4.20
2023-02-01T07:23:21.520Z,4.93
2023-02-01T07:25:49.954Z,4.80
2023-02-01T07:28:19.590Z,3.90
2023-02-01T07:30:51.808Z,4.87
2023-02-01T07:33:22.186Z,4.77
2023-02-01T07:35:51.439Z,4.10
2023-02-01T07:38:20.613Z,3.87
2023-02-01T07:40:48.777Z,4.60
2023-02-01T07:43:16.959Z,4.20
2023-02-01T07:45:53.541Z,4.10
2023-02-01T07:48:22.282Z,3.30
2023-02-01T07:50:51.359Z,3.60
2023-02-01T07:53:19.455Z,3.70
2023-02-01T07:55:48.994Z,3.53
2023-02-01T07:58:17.183Z,3.70
2023-02-01T08:01:04.109Z,3.77
2023-02-01T08:03:32.299Z,3.70
2023-02-01T08:06:00.434Z,3.87
2023-02-01T08:08:28.572Z,3.70
2023-02-01T08:10:59.718Z,3.70
2023-02-01T08:13:28.295Z,4.13
2023-02-01T08:16:01.430Z,3.63
2023-02-01T08:18:29.671Z,4.00
2023-02-01T08:20:58.695Z,3.87
2023-02-01T08:23:26.904Z,3.63
2023-02-01T08:25:55.195Z,3.47
2023-02-01T08:28:23.431Z,3.53
2023-02-01T08:30:51.792Z,3.60
2023-02-01T08:33:21.326Z,3.60
2023-02-01T08:35:49.609Z,3.13
2023-02-01T08:38:17.906Z,3.43
2023-02-01T08:40:47.251Z,5.20
2023-02-01T08:43:15.450Z,5.70
2023-02-01T08:45:43.576Z,4.47
2023-02-01T08:48:11.741Z,4.30
2023-02-01T08:50:41.523Z,3.20
2023-02-01T08:53:09.764Z,3.67
2023-02-01T08:55:37.982Z,3.60
2023-02-01T08:58:06.166Z,3.43
2023-02-01T09:00:34.385Z,3.77
2023-02-01T09:03:02.486Z,3.40
2023-02-01T09:05:44.000Z,3.70
2023-02-01T09:08:19.866Z,3.97
2023-02-01T09:10:48.126Z,3.77
2023-02-01T09:13:16.357Z,4.20
2023-02-01T09:15:44.825Z,3.80
2023-02-01T09:18:13.089Z,3.30
2023-02-01T09:20:41.311Z,3.60
2023-02-01T09:23:09.522Z,3.57
2023-02-01T09:25:40.876Z,3.37
2023-02-01T09:28:10.077Z,4.13
2023-02-01T09:30:39.262Z,3.83
2023-02-01T09:33:07.545Z,4.00
2023-02-01T09:35:35.752Z,4.20
2023-02-01T09:38:04.091Z,4.17
2023-02-01T09:40:32.871Z,3.87
2023-02-01T09:43:18.072Z,4.43
2023-02-01T09:45:55.944Z,3.40
2023-02-01T09:48:31.132Z,4.07
2023-02-01T09:51:01.806Z,3.70
2023-02-01T09:53:35.239Z,3.60
2023-02-01T09:56:08.335Z,4.60
2023-02-01T09:58:39.687Z,3.57
2023-02-01T10:01:17.217Z,3.47
2023-02-01T10:03:45.733Z,3.73
2023-02-01T10:06:38.470Z,4.00
2023-02-01T10:09:31.781Z,3.37
2023-02-01T10:12:37.571Z,3.23
2023-02-01T10:15:21.573Z,3.93
2023-02-01T10:18:02.581Z,3.90
2023-02-01T10:20:40.947Z,3.63
2023-02-01T10:23:33.980Z,3.87
2023-02-01T10:26:10.263Z,3.90
2023-02-01T10:28:40.850Z,3.80
2023-02-01T10:31:11.636Z,4.80
2023-02-01T10:33:44.847Z,4.20
2023-02-01T10:36:19.417Z,4.23
2023-02-01T10:38:48.279Z,3.80
2023-02-01T10:41:19.810Z,3.90
2023-02-01T10:43:52.514Z,4.00
2023-02-01T10:46:22.461Z,3.70
2023-02-01T10:48:52.259Z,4.33
2023-02-01T10:51:26.646Z,4.60
2023-02-01T10:53:59.256Z,4.53
2023-02-01T10:56:29.336Z,4.10
2023-02-01T10:59:04.151Z,3.77
2023-02-01T11:01:39.593Z,4.00
2023-02-01T11:04:12.614Z,3.90
2023-02-01T11:06:42.287Z,3.90
2023-02-01T11:09:21.560Z,4.10
2023-02-01T11:11:59.001Z,3.93
2023-02-01T11:14:39.766Z,3.40
2023-02-01T11:17:29.311Z,3.80
2023-02-01T11:20:00.781Z,4.03
2023-02-01T11:22:30.823Z,3.80
2023-02-01T11:24:59.953Z,3.77
2023-02-01T11:27:28.370Z,4.20
2023-02-01T11:30:02.586Z,3.83
2023-02-01T11:32:33.084Z,4.10
2023-02-01T11:35:05.885Z,4.10
2023-02-01T11:37:37.836Z,4.27
2023-02-01T11:40:27.505Z,4.07
2023-02-01T11:42:57.648Z,3.87
2023-02-01T11:45:30.339Z,4.20
2023-02-01T11:48:01.552Z,4.73
2023-02-01T11:50:40.242Z,5.00
2023-02-01T11:53:30.943Z,3.90
2023-02-01T11:56:11.072Z,4.17
2023-02-01T11:59:08.115Z,4.53
2023-02-01T12:01:58.530Z,3.90
2023-02-01T12:05:04.243Z,4.00
2023-02-01T12:07:47.113Z,3.73
2023-02-01T12:10:30.336Z,4.10
2023-02-01T12:13:11.529Z,4.33
2023-02-01T12:15:57.268Z,4.10
2023-02-01T12:18:54.135Z,4.37
2023-02-01T12:21:39.427Z,4.20
2023-02-01T12:24:27.045Z,4.20
2023-02-01T12:27:09.732Z,4.27
2023-02-01T12:29:55.343Z,5.00
2023-02-01T12:32:36.151Z,4.40
2023-02-01T12:35:22.164Z,4.30
2023-02-01T12:38:08.563Z,4.37
2023-02-01T12:40:52.825Z,4.20
2023-02-01T12:43:27.670Z,4.30
2023-02-01T12:46:00.199Z,4.63
2023-02-01T12:48:33.328Z,4.33
2023-02-01T12:51:05.236Z,4.63
2023-02-01T12:53:47.045Z,4.77
2023-02-01T12:56:23.745Z,5.10
2023-02-01T12:58:55.663Z,5.50
2023-02-01T13:01:30.222Z,5.63
2023-02-01T13:04:07.065Z,5.60
2023-02-01T13:06:39.417Z,4.10
2023-02-01T13:09:16.655Z,4.13
2023-02-01T13:11:48.102Z,3.70
2023-02-01T13:14:26.190Z,3.50
2023-02-01T13:17:00.050Z,3.57
2023-02-01T13:19:31.471Z,3.40
2023-02-01T13:22:08.737Z,4.33
2023-02-01T13:24:43.976Z,4.40
2023-02-01T13:27:14.559Z,3.50
2023-02-01T13:29:50.905Z,3.33
2023-02-01T13:33:51.410Z,3.30
2023-02-01T13:35:53.152Z,3.67
2023-02-01T13:38:51.644Z,4.43
2023-02-01T13:41:29.480Z,6.87
2023-02-01T13:44:03.437Z,5.37
2023-02-01T13:46:32.594Z,3.40
2023-02-01T13:49:03.466Z,3.60
2023-02-01T13:51:39.693Z,3.63
2023-02-01T13:54:08.265Z,4.13
2023-02-01T13:56:45.639Z,3.47
2023-02-01T14:00:01.746Z,4.47
2023-02-01T14:02:48.807Z,3.10
2023-02-01T14:05:50.844Z,5.13
2023-02-01T14:08:25.898Z,3.67
2023-02-01T14:10:56.807Z,4.30
2023-02-01T14:13:30.360Z,3.57
2023-02-01T14:16:17.143Z,3.80
2023-02-01T14:19:10.714Z,4.60
2023-02-01T14:21:50.576Z,4.17
2023-02-01T14:24:24.606Z,4.00
2023-02-01T14:26:54.506Z,3.40
2023-02-01T14:29:33.882Z,3.93
2023-02-01T14:32:06.972Z,4.27
2023-02-01T14:34:44.326Z,4.47
2023-02-01T14:37:25.743Z,3.80
2023-02-01T14:40:02.058Z,3.80
2023-02-01T14:42:38.287Z,4.20
2023-02-01T14:45:45.978Z,4.73
2023-02-01T14:48:57.124Z,3.67
2023-02-01T14:51:26.854Z,3.80
2023-02-01T14:53:55.403Z,3.97
2023-02-01T14:56:24.193Z,4.27
2023-02-01T14:58:59.247Z,3.47
2023-02-01T15:01:33.654Z,4.40
2023-02-01T15:04:06.618Z,5.17
2023-02-01T15:06:41.242Z,5.40
2023-02-01T15:09:13.932Z,4.13
2023-02-01T15:12:02.951Z,4.80
2023-02-01T15:14:33.977Z,4.93
2023-02-01T15:17:02.965Z,4.17
2023-02-01T15:19:32.562Z,4.00
2023-02-01T15:22:03.398Z,3.53
2023-02-01T15:24:33.231Z,3.70
2023-02-01T15:27:06.555Z,3.87
2023-02-01T15:29:35.151Z,3.53
2023-02-01T15:32:03.781Z,3.30
2023-02-01T15:34:48.063Z,4.30
2023-02-01T15:37:19.585Z,3.70
2023-02-01T15:40:17.184Z,3.77
2023-02-01T15:42:53.927Z,3.67
2023-02-01T15:45:24.934Z,4.03
2023-02-01T15:47:59.126Z,3.97
2023-02-01T15:50:30.873Z,4.20
2023-02-01T15:53:00.463Z,3.83
2023-02-01T15:55:38.839Z,3.87
2023-02-01T15:58:08.460Z,4.70
2023-02-01T16:00:44.681Z,5.63
2023-02-01T16:03:28.836Z,5.20
2023-02-01T16:05:59.800Z,5.20
2023-02-01T16:08:31.605Z,4.70
2023-02-01T16:11:03.926Z,3.80
2023-02-01T16:13:32.152Z,3.80
2023-02-01T16:16:00.585Z,5.37
2023-02-01T16:18:28.818Z,4.30
2023-02-01T16:20:57.136Z,6.70
2023-02-01T16:23:25.376Z,5.63
2023-02-01T16:25:55.213Z,4.77
2023-02-01T16:28:23.425Z,3.73
2023-02-01T16:30:51.834Z,3.53
2023-02-01T16:33:24.020Z,3.83
2023-02-01T16:35:53.429Z,4.07
2023-02-01T16:38:23.599Z,4.30
2023-02-01T16:40:54.206Z,4.43
2023-02-01T16:43:24.182Z,4.20
2023-02-01T16:45:54.992Z,4.23
2023-02-01T16:48:25.495Z,4.33
2023-02-01T16:50:57.041Z,5.17
2023-02-01T16:53:28.499Z,4.13
2023-02-01T16:55:59.273Z,5.03
2023-02-01T16:58:28.705Z,4.03
2023-02-01T17:00:57.358Z,4.50
2023-02-01T17:03:25.604Z,4.83
2023-02-01T17:05:56.181Z,4.17
2023-02-01T17:08:28.969Z,4.20
2023-02-01T17:10:58.750Z,4.13
2023-02-01T17:13:27.216Z,3.60
2023-02-01T17:15:59.419Z,3.57
2023-02-01T17:18:31.545Z,4.07
2023-02-01T17:21:00.184Z,4.17
2023-02-01T17:23:29.928Z,3.03
2023-02-01T17:25:59.776Z,3.90
2023-02-01T17:28:29.066Z,3.67
2023-02-01T17:30:58.007Z,3.60
2023-02-01T17:33:28.873Z,3.80
2023-02-01T17:36:06.102Z,4.00
2023-02-01T17:38:35.469Z,4.07
2023-02-01T17:41:05.950Z,3.70
2023-02-01T17:43:34.661Z,3.83
2023-02-01T17:46:06.993Z,3.60
2023-02-01T17:48:35.435Z,3.37
2023-02-01T17:51:03.791Z,4.67
2023-02-01T17:53:34.175Z,4.10
2023-02-01T17:56:04.042Z,4.33
2023-02-01T17:58:33.497Z,4.37
2023-02-01T18:01:01.865Z,4.00
2023-02-01T18:03:32.848Z,4.00
2023-02-01T18:06:01.849Z,4.10
2023-02-01T18:08:33.487Z,3.93
2023-02-01T18:11:03.896Z,4.93
2023-02-01T18:13:33.500Z,3.60
2023-02-01T18:16:02.262Z,3.57
2023-02-01T18:18:33.329Z,3.53
2023-02-01T18:21:01.762Z,3.70
2023-02-01T18:23:30.958Z,4.00
2023-02-01T18:25:59.430Z,3.20
2023-02-01T18:28:29.091Z,4.27
2023-02-01T18:30:57.807Z,3.33
2023-02-01T18:33:26.144Z,3.43
2023-02-01T18:35:54.431Z,3.30
2023-02-01T18:38:22.824Z,3.60
2023-02-01T18:40:53.573Z,4.13
2023-02-01T18:43:22.559Z,5.97
2023-02-01T18:45:52.206Z,5.83
2023-02-01T18:48:22.267Z,4.73
2023-02-01T18:50:57.272Z,5.07
2023-02-01T18:53:28.122Z,4.73
2023-02-01T18:55:57.870Z,4.50
2023-02-01T18:58:27.178Z,4.10
2023-02-01T19:00:58.533Z,3.90
2023-02-01T19:03:27.157Z,3.90
2023-02-01T19:05:56.811Z,4.10
2023-02-01T19:08:25.693Z,4.63
2023-02-01T19:10:54.133Z,4.80
2023-02-01T19:13:24.572Z,4.60
2023-02-01T19:15:53.469Z,5.10
2023-02-01T19:18:23.159Z,5.73
2023-02-01T19:20:51.756Z,5.30
2023-02-01T19:23:20.368Z,5.30
2023-02-01T19:25:49.946Z,5.10
2023-02-01T19:28:18.474Z,4.53
2023-02-01T19:30:47.220Z,4.20
2023-02-01T19:33:17.910Z,4.93
2023-02-01T19:35:48.028Z,4.67
2023-02-01T19:38:16.546Z,4.60
2023-02-01T19:40:44.949Z,4.53
2023-02-01T19:43:13.238Z,4.83
2023-02-01T19:45:43.494Z,4.70
2023-02-01T19:48:13.248Z,4.53
2023-02-01T19:50:41.771Z,4.97
2023-02-01T19:53:11.883Z,4.67
2023-02-01T19:55:40.326Z,4.50
2023-02-01T19:58:08.838Z,4.20
2023-02-01T20:00:36.455Z,4.33
2023-02-01T20:03:04.941Z,4.50
2023-02-01T20:05:33.470Z,4.67
2023-02-01T20:08:01.710Z,4.23
2023-02-01T20:10:31.284Z,4.30
2023-02-01T20:12:59.645Z,4.17
2023-02-01T20:15:28.420Z,4.27
2023-02-01T20:17:56.775Z,4.33
2023-02-01T20:20:25.055Z,4.93
2023-02-01T20:22:54.028Z,4.70
2023-02-01T20:25:22.797Z,4.57
2023-02-01T20:27:53.468Z,4.90
2023-02-01T20:30:24.712Z,3.80
2023-02-01T20:32:53.625Z,4.00
2023-02-01T20:35:22.712Z,3.60
2023-02-01T20:37:51.819Z,3.60
2023-02-01T20:40:20.456Z,3.37
2023-02-01T20:42:48.714Z,4.30
2023-02-01T20:45:18.611Z,3.80
2023-02-01T20:47:50.497Z,4.00
2023-02-01T20:50:19.338Z,4.00
2023-02-01T20:52:47.649Z,3.80
2023-02-01T20:55:16.039Z,4.03
2023-02-01T20:57:44.246Z,3.97
2023-02-01T21:00:13.893Z,3.87
2023-02-01T21:02:43.606Z,3.97
2023-02-01T21:05:12.615Z,4.60
2023-02-01T21:07:40.824Z,4.23
2023-02-01T21:10:10.756Z,3.70
2023-02-01T21:12:39.428Z,3.47
2023-02-01T21:15:08.722Z,3.83
2023-02-01T21:17:39.223Z,3.33
2023-02-01T21:20:10.034Z,3.83
2023-02-01T21:22:38.359Z,3.70
2023-02-01T21:25:07.550Z,3.73
2023-02-01T21:27:36.059Z,4.27
2023-02-01T21:30:06.397Z,3.97
2023-02-01T21:32:36.843Z,4.03
2023-02-01T21:35:05.577Z,3.73
2023-02-01T21:37:35.375Z,3.77
2023-02-01T21:40:03.578Z,3.97
2023-02-01T21:42:32.455Z,3.90
2023-02-01T21:45:02.346Z,4.47
2023-02-01T21:47:33.837Z,4.43
2023-02-01T21:50:02.212Z,3.97
2023-02-01T21:52:30.800Z,4.57
2023-02-01T21:55:00.459Z,4.53
2023-02-01T21:57:29.216Z,3.87
2023-02-01T21:59:58.838Z,4.37
2023-02-01T22:02:27.909Z,4.63
2023-02-01T22:04:57.759Z,4.30
2023-02-01T22:07:26.339Z,4.03
2023-02-01T22:09:54.597Z,4.00
2023-02-01T22:12:24.479Z,3.80
2023-02-01T22:14:53.040Z,4.00
2023-02-01T22:17:21.347Z,4.97
2023-02-01T22:19:49.468Z,4.33
2023-02-01T22:22:17.622Z,4.50
2023-02-01T22:24:45.884Z,4.50
2023-02-01T22:27:14.823Z,4.20
2023-02-01T22:29:44.989Z,4.37
2023-02-01T22:32:14.289Z,4.37
2023-02-01T22:34:42.570Z,4.50
2023-02-01T22:37:12.070Z,4.40
2023-02-01T22:39:41.318Z,4.47
2023-02-01T22:42:09.528Z,4.60
2023-02-01T22:44:37.809Z,4.63
2023-02-01T22:47:07.550Z,4.53
2023-02-01T22:49:35.700Z,4.40
2023-02-01T22:52:03.869Z,4.90
2023-02-01T22:54:32.361Z,4.20
2023-02-01T22:57:01.177Z,4.97
2023-02-01T22:59:29.596Z,3.80
2023-02-01T23:01:57.789Z,4.33
2023-02-01T23:04:27.588Z,4.47
2023-02-01T23:06:55.866Z,4.20
2023-02-01T23:09:26.113Z,4.07
2023-02-01T23:11:55.804Z,4.03
2023-02-01T23:14:24.218Z,3.93
2023-02-01T23:16:52.885Z,3.60
2023-02-01T23:19:21.533Z,4.40
2023-02-01T23:21:51.270Z,3.57
2023-02-01T23:24:19.779Z,3.63
2023-02-01T23:26:48.500Z,3.30
2023-02-01T23:29:19.302Z,3.23
2023-02-01T23:31:47.701Z,3.30
2023-02-01T23:34:15.976Z,3.83
2023-02-01T23:36:44.414Z,3.67
2023-02-01T23:39:14.475Z,3.60
2023-02-01T23:41:43.083Z,4.10
2023-02-01T23:44:13.114Z,3.70
2023-02-01T23:46:46.956Z,3.93
2023-02-01T23:49:16.960Z,3.40
2023-02-01T23:51:47.424Z,4.03
2023-02-01T23:54:17.069Z,3.90
2023-02-01T23:56:46.598Z,5.50
2023-02-01T23:59:16.773Z,5.30
